createdAt,value
2019-04-28T00:01:28.564Z,99.40
2019-04-28T00:06:46.068Z,99.70
2019-04-28T00:09:35.980Z,99.90
2019-04-28T00:12:25.595Z,99.90
2019-04-28T00:15:14.893Z,99.80
2019-04-28T00:18:04.284Z,99.90
2019-04-28T00:21:03.407Z,99.90
2019-04-28T00:23:54.730Z,99.90
2019-04-28T00:26:52.348Z,99.90
2019-04-28T00:29:46.051Z,99.90
2019-04-28T00:32:32.923Z,99.90
2019-04-28T00:35:23.251Z,99.90
2019-04-28T00:38:13.088Z,99.90
2019-04-28T00:41:02.457Z,99.90
2019-04-28T00:43:51.997Z,99.90
2019-04-28T00:46:43.836Z,99.90
2019-04-28T00:49:53.249Z,99.80
2019-04-28T00:52:42.469Z,99.80
2019-04-28T00:55:32.059Z,99.80
2019-04-28T00:58:20.960Z,99.80
2019-04-28T01:01:14.389Z,99.80
2019-04-28T01:04:03.807Z,99.80
2019-04-28T01:06:52.423Z,99.70
2019-04-28T01:09:41.664Z,99.90
2019-04-28T01:12:31.286Z,99.90
2019-04-28T01:20:17.163Z,99.90
2019-04-28T01:23:06.882Z,99.90
2019-04-28T01:25:56.390Z,99.90
2019-04-28T01:28:45.622Z,99.90
2019-04-28T01:31:45.387Z,99.70
2019-04-28T01:34:35.329Z,99.90
2019-04-28T01:37:24.322Z,99.90
2019-04-28T01:40:13.974Z,99.90
2019-04-28T01:43:03.068Z,99.90
2019-04-28T01:45:52.549Z,99.90
2019-04-28T01:48:41.993Z,99.90
2019-04-28T01:53:57.150Z,99.90
2019-04-28T01:56:46.528Z,99.90
2019-04-28T01:59:35.407Z,99.90
2019-04-28T02:02:24.559Z,99.90
2019-04-28T02:05:14.001Z,99.90
2019-04-28T02:08:03.313Z,99.90
2019-04-28T02:10:52.797Z,99.90
2019-04-28T02:13:42.436Z,99.90
2019-04-28T02:16:31.694Z,99.90
2019-04-28T02:19:20.509Z,99.90
2019-04-28T02:22:27.734Z,99.90
2019-04-28T02:25:19.689Z,99.90
2019-04-28T02:28:11.726Z,99.90
2019-04-28T02:31:02.311Z,99.90
2019-04-28T02:36:17.296Z,99.90
2019-04-28T02:39:06.055Z,99.90
2019-04-28T02:41:55.612Z,99.90
2019-04-28T02:44:23.632Z,99.90
2019-04-28T02:49:40.917Z,99.90
2019-04-28T02:52:35.465Z,99.90
2019-04-28T02:55:24.866Z,99.90
2019-04-28T02:58:13.861Z,99.90
2019-04-28T03:01:13.006Z,99.90
2019-04-28T03:03:54.854Z,99.90
2019-04-28T03:06:44.484Z,99.90
2019-04-28T03:09:34.331Z,99.90
2019-04-28T03:12:24.051Z,99.90
2019-04-28T03:15:13.599Z,99.90
2019-04-28T03:18:02.588Z,99.90
2019-04-28T03:20:52.617Z,99.90
2019-04-28T03:23:41.316Z,99.90
2019-04-28T03:34:05.540Z,99.90
2019-04-28T03:36:55.648Z,99.90
2019-04-28T03:39:44.939Z,99.90
2019-04-28T03:45:02.437Z,99.90
2019-04-28T03:47:52.149Z,99.90
2019-04-28T03:50:41.697Z,99.90
2019-04-28T03:53:31.545Z,99.90
2019-04-28T03:56:34.059Z,99.90
2019-04-28T03:59:23.634Z,99.90
2019-04-28T04:02:13.288Z,99.90
2019-04-28T04:05:03.990Z,99.90
2019-04-28T04:07:53.993Z,99.90
2019-04-28T04:10:54.061Z,99.90
2019-04-28T04:13:53.219Z,99.90
2019-04-28T04:16:55.692Z,99.90
2019-04-28T04:19:40.877Z,99.90
2019-04-28T04:22:17.271Z,99.90
2019-04-28T04:25:01.327Z,99.90
2019-04-28T04:27:37.205Z,99.90
2019-04-28T04:30:20.778Z,99.90
2019-04-28T04:33:02.676Z,99.90
2019-04-28T04:35:52.013Z,99.90
2019-04-28T04:38:46.097Z,99.90
2019-04-28T04:41:26.601Z,99.90
2019-04-28T04:44:02.998Z,99.90
2019-04-28T04:46:52.054Z,99.90
2019-04-28T04:49:41.325Z,99.90
2019-04-28T04:52:31.268Z,99.90
2019-04-28T04:55:21.267Z,99.90
2019-04-28T04:58:04.357Z,99.90
2019-04-28T05:00:57.557Z,99.90
2019-04-28T05:03:49.775Z,99.90
2019-04-28T05:06:41.518Z,99.90
2019-04-28T05:09:19.618Z,99.90
2019-04-28T05:12:02.963Z,99.90
2019-04-28T05:14:39.583Z,99.90
2019-04-28T05:17:22.547Z,99.90
2019-04-28T05:19:59.504Z,99.90
2019-04-28T05:22:45.204Z,99.90
2019-04-28T05:25:24.512Z,99.90
2019-04-28T05:31:02.340Z,99.90
2019-04-28T05:33:52.055Z,99.90
2019-04-28T05:36:44.514Z,99.90
2019-04-28T05:39:32.871Z,99.90
2019-04-28T05:44:49.650Z,99.90
2019-04-28T05:47:38.474Z,99.90
2019-04-28T05:50:05.514Z,99.90
2019-04-28T05:53:10.315Z,99.90
2019-04-28T05:58:30.066Z,99.90
2019-04-28T06:01:30.463Z,99.90
2019-04-28T06:04:19.934Z,99.90
2019-04-28T06:07:10.955Z,99.90
2019-04-28T06:12:27.635Z,99.90
2019-04-28T06:15:17.219Z,99.90
2019-04-28T06:18:06.009Z,99.90
2019-04-28T06:23:21.166Z,99.90
2019-04-28T06:26:10.554Z,99.90
2019-04-28T06:29:00.410Z,99.90
2019-04-28T06:31:49.341Z,99.90
2019-04-28T06:34:38.645Z,99.90
2019-04-28T06:37:27.261Z,99.90
2019-04-28T06:40:19.513Z,99.90
2019-04-28T06:43:08.902Z,99.90
2019-04-28T06:45:58.120Z,99.90
2019-04-28T06:48:46.913Z,99.90
2019-04-28T06:51:36.349Z,99.90
2019-04-28T06:54:26.184Z,99.90
2019-04-28T06:59:42.063Z,99.90
2019-04-28T07:02:31.698Z,99.90
2019-04-28T07:05:21.956Z,99.90
2019-04-28T07:08:10.321Z,99.90
2019-04-28T07:10:59.825Z,99.90
2019-04-28T07:13:49.545Z,99.90
2019-04-28T07:21:51.260Z,99.90
2019-04-28T07:24:39.926Z,99.90
2019-04-28T07:29:55.552Z,99.90
2019-04-28T07:32:45.535Z,99.90
2019-04-28T07:35:34.928Z,99.60
2019-04-28T07:40:50.281Z,99.30
2019-04-28T07:43:39.776Z,99.30
2019-04-28T07:46:29.225Z,98.90
2019-04-28T07:49:18.666Z,99.10
2019-04-28T07:52:09.492Z,99.40
2019-04-28T07:54:58.879Z,99.30
2019-04-28T07:57:48.254Z,99.40
2019-04-28T08:00:38.893Z,99.40
2019-04-28T08:03:27.755Z,99.80
2019-04-28T08:11:09.544Z,99.90
2019-04-28T08:13:59.360Z,99.90
2019-04-28T08:16:48.648Z,99.90
2019-04-28T08:19:38.017Z,99.90
2019-04-28T08:22:27.235Z,99.90
2019-04-28T08:25:18.570Z,99.90
2019-04-28T08:30:34.230Z,99.90
2019-04-28T08:33:29.427Z,99.90
2019-04-28T08:36:19.247Z,99.90
2019-04-28T08:39:00.689Z,99.90
2019-04-28T08:41:50.524Z,99.90
2019-04-28T08:44:39.964Z,99.90
2019-04-28T08:47:29.162Z,99.90
2019-04-28T08:50:20.810Z,99.90
2019-04-28T08:53:10.200Z,99.90
2019-04-28T08:58:25.979Z,99.90
2019-04-28T09:01:15.969Z,99.90
2019-04-28T09:04:15.129Z,99.90
2019-04-28T09:11:49.010Z,99.90
2019-04-28T09:14:37.880Z,99.90
2019-04-28T09:17:27.595Z,99.90
2019-04-28T09:20:18.090Z,99.90
2019-04-28T09:23:07.923Z,99.90
2019-04-28T09:25:56.919Z,99.90
2019-04-28T09:28:46.207Z,99.90
2019-04-28T09:31:35.424Z,99.90
2019-04-28T09:34:28.364Z,99.90
2019-04-28T09:37:16.241Z,99.90
2019-04-28T09:40:07.489Z,99.90
2019-04-28T09:46:07.251Z,99.90
2019-04-28T09:48:50.000Z,99.90
2019-04-28T09:51:32.402Z,99.90
2019-04-28T09:54:21.672Z,99.90
2019-04-28T09:56:57.428Z,99.90
2019-04-28T09:59:40.026Z,99.90
2019-04-28T10:02:29.132Z,99.90
2019-04-28T10:05:16.037Z,99.90
2019-04-28T10:07:52.528Z,99.90
2019-04-28T10:10:34.394Z,99.90
2019-04-28T10:13:10.977Z,99.90
2019-04-28T10:15:54.431Z,99.90
2019-04-28T10:18:37.473Z,99.90
2019-04-28T10:21:22.328Z,99.90
2019-04-28T10:24:04.658Z,99.90
2019-04-28T10:26:54.589Z,99.90
2019-04-28T10:29:36.667Z,99.90
2019-04-28T10:32:19.672Z,99.90
2019-04-28T10:35:02.917Z,99.90
2019-04-28T10:37:38.654Z,99.90
2019-04-28T10:40:33.252Z,99.90
2019-04-28T10:43:09.126Z,99.90
2019-04-28T10:45:56.246Z,99.90
2019-04-28T10:48:39.733Z,99.90
2019-04-28T10:51:23.430Z,99.90
2019-04-28T10:53:59.227Z,99.90
2019-04-28T10:56:42.175Z,99.90
2019-04-28T10:59:18.006Z,99.90
2019-04-28T11:02:00.840Z,99.90
2019-04-28T11:04:41.369Z,99.90
2019-04-28T11:07:25.892Z,99.90
2019-04-28T11:10:03.630Z,99.90
2019-04-28T11:12:45.999Z,99.90
2019-04-28T11:15:34.958Z,99.90
2019-04-28T11:18:19.905Z,99.90
2019-04-28T11:20:56.079Z,99.90
2019-04-28T11:23:38.267Z,99.90
2019-04-28T11:26:20.468Z,99.90
2019-04-28T11:29:12.207Z,99.90
2019-04-28T11:31:47.982Z,99.90
2019-04-28T11:34:50.009Z,99.90
2019-04-28T11:37:32.357Z,99.90
2019-04-28T11:40:14.386Z,99.90
2019-04-28T11:43:11.610Z,99.90
2019-04-28T11:46:01.160Z,99.90
2019-04-28T11:48:43.441Z,99.90
2019-04-28T11:51:19.692Z,99.90
2019-04-28T11:54:02.205Z,99.90
2019-04-28T11:56:41.477Z,99.90
2019-04-28T11:59:22.020Z,99.90
2019-04-28T12:01:58.065Z,99.90
2019-04-28T12:04:40.942Z,99.90
2019-04-28T12:07:16.784Z,99.90
2019-04-28T12:10:04.853Z,99.90
2019-04-28T12:12:40.645Z,99.60
2019-04-28T12:15:42.020Z,99.70
2019-04-28T12:18:26.351Z,99.80
2019-04-28T12:21:08.900Z,99.90
2019-04-28T12:23:52.147Z,99.60
2019-04-28T12:26:34.519Z,99.70
2019-04-28T12:29:10.590Z,99.80
2019-04-28T12:31:53.490Z,99.60
2019-04-28T12:34:36.136Z,99.90
2019-04-28T12:37:18.855Z,99.90
2019-04-28T12:39:55.623Z,99.90
2019-04-28T12:42:37.971Z,99.90
2019-04-28T12:45:34.519Z,99.80
2019-04-28T12:48:06.355Z,99.80
2019-04-28T12:50:44.326Z,99.90
2019-04-28T12:53:27.246Z,99.90
2019-04-28T12:56:03.761Z,99.90
2019-04-28T12:58:46.483Z,99.90
2019-04-28T13:01:49.826Z,99.90
2019-04-28T13:04:37.203Z,99.90
2019-04-28T13:07:12.976Z,99.90
2019-04-28T13:09:55.597Z,99.90
2019-04-28T13:12:31.844Z,99.90
2019-04-28T13:15:15.286Z,99.90
2019-04-28T13:17:58.029Z,99.90
2019-04-28T13:20:40.260Z,99.90
2019-04-28T13:23:23.140Z,99.90
2019-04-28T13:26:05.926Z,99.90
2019-04-28T13:28:41.655Z,99.90
2019-04-28T13:31:23.642Z,99.90
2019-04-28T13:34:01.456Z,99.90
2019-04-28T13:36:43.695Z,99.90
2019-04-28T13:39:24.716Z,99.90
2019-04-28T13:42:06.751Z,99.90
2019-04-28T13:44:56.719Z,99.90
2019-04-28T13:47:38.606Z,99.90
2019-04-28T13:50:28.335Z,99.90
2019-04-28T13:53:17.560Z,99.90
2019-04-28T13:55:54.981Z,99.90
2019-04-28T13:58:38.827Z,99.90
2019-04-28T14:01:05.880Z,99.90
2019-04-28T14:06:31.947Z,99.90
2019-04-28T14:11:47.558Z,99.90
2019-04-28T14:14:36.928Z,99.90
2019-04-28T14:17:26.450Z,99.90
2019-04-28T14:20:15.791Z,99.90
2019-04-28T14:23:05.555Z,99.90
2019-04-28T14:25:54.497Z,99.90
2019-04-28T14:28:44.204Z,99.90
2019-04-28T14:31:34.145Z,99.90
2019-04-28T14:34:23.730Z,99.90
2019-04-28T14:37:12.538Z,99.90
2019-04-28T14:40:01.931Z,99.90
2019-04-28T14:42:51.100Z,99.90
2019-04-28T14:48:06.720Z,99.90
2019-04-28T14:50:56.155Z,99.90
2019-04-28T14:53:45.731Z,99.90
2019-04-28T14:56:35.054Z,99.90
2019-04-28T14:59:24.596Z,99.90
2019-04-28T15:08:06.246Z,99.90
2019-04-28T15:10:59.298Z,99.90
2019-04-28T15:13:49.343Z,99.90
2019-04-28T15:16:39.254Z,99.90
2019-04-28T15:21:54.824Z,99.90
2019-04-28T15:24:44.526Z,99.90
2019-04-28T15:27:33.938Z,99.90
2019-04-28T15:35:15.806Z,99.90
2019-04-28T15:38:05.340Z,99.90
2019-04-28T15:40:54.975Z,99.90
2019-04-28T15:43:44.173Z,99.90
2019-04-28T15:46:33.839Z,99.90
2019-04-28T15:49:22.770Z,99.90
2019-04-28T15:54:38.211Z,99.90
2019-04-28T15:57:27.232Z,99.90
2019-04-28T16:00:17.928Z,99.90
2019-04-28T16:03:07.087Z,99.90
2019-04-28T16:08:22.602Z,99.90
2019-04-28T16:11:12.526Z,99.90
2019-04-28T16:14:02.414Z,99.90
2019-04-28T16:16:52.563Z,99.90
2019-04-28T16:19:35.246Z,99.90
2019-04-28T16:22:25.439Z,99.90
2019-04-28T16:25:14.591Z,99.90
2019-04-28T16:28:03.778Z,99.90
2019-04-28T16:30:53.705Z,99.90
2019-04-28T16:33:43.632Z,99.90
2019-04-28T16:38:58.351Z,99.90
2019-04-28T16:44:32.257Z,99.90
2019-04-28T16:47:20.449Z,99.90
2019-04-28T16:50:09.615Z,99.90
2019-04-28T16:55:28.612Z,99.90
2019-04-28T16:58:20.170Z,99.90
2019-04-28T17:01:12.285Z,99.90
2019-04-28T17:04:01.935Z,99.90
2019-04-28T17:06:51.016Z,99.90
2019-04-28T17:09:40.041Z,99.90
2019-04-28T17:12:30.157Z,99.90
2019-04-28T17:17:45.372Z,99.90
2019-04-28T17:20:34.807Z,99.90
2019-04-28T17:23:23.793Z,99.90
2019-04-28T17:26:12.653Z,99.90
2019-04-28T17:29:01.376Z,99.90
2019-04-28T17:31:50.753Z,99.90
2019-04-28T17:39:32.359Z,99.90
2019-04-28T17:42:22.309Z,99.90
2019-04-28T17:45:11.984Z,99.90
2019-04-28T17:50:28.708Z,99.90
2019-04-28T17:55:45.629Z,99.90
2019-04-28T17:58:35.175Z,99.90
2019-04-28T18:04:11.030Z,99.90
2019-04-28T18:07:01.453Z,99.90
2019-04-28T18:09:50.606Z,99.90
2019-04-28T18:12:40.031Z,99.90
2019-04-28T18:18:08.720Z,99.90
2019-04-28T18:20:57.809Z,99.90
2019-04-28T18:23:47.161Z,99.90
2019-04-28T18:26:36.453Z,99.90
2019-04-28T18:29:26.691Z,99.90
2019-04-28T18:31:53.791Z,99.90
2019-04-28T18:34:47.116Z,99.90
2019-04-28T18:37:54.261Z,99.90
2019-04-28T18:40:56.774Z,99.90
2019-04-28T18:43:32.146Z,99.90
2019-04-28T18:46:14.205Z,99.90
2019-04-28T18:49:03.896Z,99.90
2019-04-28T18:51:53.954Z,99.90
2019-04-28T18:57:09.080Z,99.90
2019-04-28T18:59:58.039Z,99.90
2019-04-28T19:02:49.071Z,99.90
2019-04-28T19:05:40.636Z,99.90
2019-04-28T19:08:48.528Z,99.90
2019-04-28T19:14:05.665Z,99.90
2019-04-28T19:17:11.732Z,99.90
2019-04-28T19:19:59.954Z,99.90
2019-04-28T19:22:53.656Z,99.90
2019-04-28T19:25:43.142Z,99.90
2019-04-28T19:33:25.285Z,99.90
2019-04-28T19:36:14.313Z,99.90
2019-04-28T19:39:03.828Z,99.90
2019-04-28T19:46:45.358Z,99.90
2019-04-28T19:49:35.149Z,99.90
2019-04-28T19:58:06.782Z,99.90
2019-04-28T20:03:24.167Z,99.90
2019-04-28T20:08:39.876Z,99.90
2019-04-28T20:11:29.681Z,99.90
2019-04-28T20:14:19.258Z,99.90
2019-04-28T20:17:08.534Z,99.90
2019-04-28T20:19:58.225Z,99.90
2019-04-28T20:22:47.059Z,99.90
2019-04-28T20:25:37.048Z,99.90
2019-04-28T20:28:26.475Z,99.90
2019-04-28T20:31:16.038Z,99.90
2019-04-28T20:34:06.268Z,99.90
2019-04-28T20:36:59.786Z,99.90
2019-04-28T20:39:51.291Z,99.90
2019-04-28T20:42:47.363Z,99.90
2019-04-28T20:45:22.833Z,99.90
2019-04-28T20:53:20.334Z,99.90
2019-04-28T20:56:09.128Z,99.90
2019-04-28T20:58:58.320Z,99.90
2019-04-28T21:01:48.363Z,99.90
2019-04-28T21:07:04.245Z,99.90
2019-04-28T21:09:53.772Z,99.90
2019-04-28T21:12:42.940Z,99.90
2019-04-28T21:17:58.468Z,99.90
2019-04-28T21:20:47.667Z,99.90
2019-04-28T21:23:36.973Z,99.90
2019-04-28T21:26:26.675Z,99.90
2019-04-28T21:29:15.613Z,99.90
2019-04-28T21:32:05.066Z,99.90
2019-04-28T21:34:54.422Z,99.90
2019-04-28T21:37:43.787Z,99.90
2019-04-28T21:40:34.827Z,99.90
2019-04-28T21:48:18.214Z,99.90
2019-04-28T21:51:07.745Z,99.90
2019-04-28T21:53:51.158Z,99.90
2019-04-28T21:59:15.212Z,99.90
2019-04-28T22:02:04.940Z,99.90
2019-04-28T22:04:53.905Z,99.90
2019-04-28T22:07:43.301Z,99.90
2019-04-28T22:10:32.879Z,99.90
2019-04-28T22:13:22.043Z,99.90
2019-04-28T22:16:11.657Z,99.90
2019-04-28T22:19:01.486Z,99.90
2019-04-28T22:24:18.714Z,99.90
2019-04-28T22:27:08.303Z,99.90
2019-04-28T22:29:56.960Z,99.90
2019-04-28T22:35:12.627Z,99.90
2019-04-28T22:38:02.180Z,99.90
2019-04-28T22:40:44.722Z,99.90
2019-04-28T22:46:02.103Z,99.90
2019-04-28T22:48:51.835Z,99.90
2019-04-28T22:51:41.290Z,99.90
2019-04-28T22:54:35.102Z,99.90
2019-04-28T22:57:41.632Z,99.90
2019-04-28T23:05:35.245Z,99.90
2019-04-28T23:08:24.578Z,99.90
2019-04-28T23:13:39.901Z,99.90
2019-04-28T23:16:29.486Z,99.90
2019-04-28T23:19:20.809Z,99.90
2019-04-28T23:24:35.894Z,99.90
2019-04-28T23:27:24.574Z,99.90
2019-04-28T23:30:13.788Z,99.90
2019-04-28T23:35:35.597Z,99.90
2019-04-28T23:38:25.242Z,99.90
2019-04-28T23:41:21.349Z,99.90
2019-04-28T23:49:35.659Z,99.90
2019-04-28T23:52:28.763Z,99.90
2019-04-28T23:55:20.207Z,99.90
2019-04-28T23:58:02.737Z,99.90
